KANW/ANW METAR and TAF weather

Enter ICAO airport designator
Station Type Date Time Source
KANW METAR 2019/08/19 02:15 UTC NOAA

KANW 190215Z AUTO 14005KT 10SM CLR 18/17 A2995 RMK AO2 T01810170


Station Type Date Time Source
KANW Decoded METAR 2019/08/19 02:15 UTC NOAA

Station name not available
Aug 18, 2019 - 10:15 PM EDT / 2019.08.19 0215 UTC
Wind: from the SE (140 degrees) at 6 MPH (5 KT):0
Visibility: 10 mile(s):0
Sky conditions: clear
Temperature: 64.6 F (18.1 C)
Dew Point: 62.6 F (17.0 C)
Relative Humidity: 93%
Pressure (altimeter): 29.95 in. Hg (1014 hPa)
ob: KANW 190215Z AUTO 14005KT 10SM CLR 18/17 A2995 RMK AO2 T01810170
cycle: 2

Station Type Date Time Source
KANW TAF UTC NOAA

Error!

Example: see airport list